»·PEaware :: AFL1200 KRDD-KOTH

AFL1200 :: KRDD-KOTH

FLIGHT INFORMATION

Flight Status: Arrived
Operator:
Aeroflot
More flights by this operator :: More flights under this callsign
Pilot: Alan J. (5709)
Aircraft: YAKOVLEV YAK-40
(YK40)
More flights by this aircraft type
Origin: KRDD Redding Mun
United States
Destination: KOTH North Bend Mun
United States
More flights between these airports :: More routes between these airports
Route: FOLDS V23 OED V287 OTH
File this flight plan on PilotEdge
Remarks:
Altitude:
(Current/Filed)
22,000ft
Speed:
(Current/Filed)
300kts
Departed: 31-Jan-19 10:48 PM
Arrived: 31-Jan-19 11:36 PM
Distance/Time
Traveled:
195nm/0:48
Distance/Time
To Go:
Arrived

Flight Plot

Page will automatically refresh every two minutes.


Map Options




Map Legend


Flown Route
Filed Route
Departure Airport
Arrival Airport
Navaid (VOR, NDB)
Fix

Horizontal Profiles

Position Reports

Time Latitude Longitude Heading Altitude Ground
Speed
31-Jan-19 22:30 40.504914 -122.299023 315 511ft 0kts
31-Jan-19 22:31 40.504914 -122.299023 315 511ft 0kts
31-Jan-19 22:32 40.504914 -122.299023 315 511ft 0kts
31-Jan-19 22:33 40.504914 -122.299023 315 511ft 0kts
31-Jan-19 22:34 40.504914 -122.299023 315 511ft 0kts
31-Jan-19 22:35 40.504914 -122.299023 315 511ft 0kts
31-Jan-19 22:36 40.504914 -122.299023 315 511ft 0kts
31-Jan-19 22:37 40.504914 -122.299023 315 511ft 0kts
31-Jan-19 22:38 40.504914 -122.299023 315 511ft 0kts
31-Jan-19 22:39 40.504916 -122.299027 315 511ft 0kts
31-Jan-19 22:40 40.504723 -122.298670 275 511ft 2kts
31-Jan-19 22:41 40.505019 -122.298312 174 511ft 0kts
31-Jan-19 22:42 40.505018 -122.298312 174 511ft 0kts
31-Jan-19 22:43 40.504653 -122.298262 174 511ft 6kts
31-Jan-19 22:44 40.502016 -122.296071 135 511ft 0kts
31-Jan-19 22:45 40.501973 -122.296015 135 511ft 0kts
31-Jan-19 22:46 40.502968 -122.294893 359 511ft 23kts
31-Jan-19 22:47 40.534909 -122.293922 4 1242ft 148kts
31-Jan-19 22:48 40.577195 -122.288318 328 2507ft 197kts
31-Jan-19 22:49 40.621306 -122.333097 311 4744ft 204kts
31-Jan-19 22:50 40.661462 -122.387285 317 6798ft 222kts
31-Jan-19 22:51 40.713056 -122.434398 328 9908ft 254kts
31-Jan-19 22:52 40.768836 -122.474915 322 14005ft 215kts
31-Jan-19 22:53 40.816981 -122.515625 323 16970ft 203kts
31-Jan-19 22:54 40.866571 -122.552069 324 19281ft 215kts
31-Jan-19 22:55 40.926700 -122.589101 336 21251ft 263kts
31-Jan-19 22:56 41.005844 -122.619736 338 21989ft 335kts
31-Jan-19 22:57 41.094438 -122.653893 338 21904ft 327kts
31-Jan-19 22:58 41.180104 -122.686886 338 21894ft 320kts
31-Jan-19 22:59 41.264983 -122.719400 338 21892ft 316kts
31-Jan-19 23:00 41.343451 -122.764686 327 21853ft 309kts
31-Jan-19 23:01 41.421057 -122.812554 335 21931ft 308kts
31-Jan-19 23:02 41.506222 -122.830998 359 21885ft 320kts
31-Jan-19 23:03 41.595101 -122.819086 357 21944ft 319kts
31-Jan-19 23:04 41.682389 -122.830159 344 21901ft 316kts
31-Jan-19 23:05 41.769579 -122.843999 355 21930ft 321kts
31-Jan-19 23:06 41.859102 -122.843037 355 21912ft 322kts
31-Jan-19 23:07 41.948422 -122.842887 355 21908ft 322kts
31-Jan-19 23:08 42.034242 -122.863220 329 21856ft 312kts
31-Jan-19 23:09 42.119471 -122.884215 6 21865ft 328kts
31-Jan-19 23:11 42.209073 -122.878641 348 21826ft 321kts
31-Jan-19 23:12 42.296655 -122.895550 344 21863ft 317kts
31-Jan-19 23:13 42.381686 -122.923387 326 21923ft 306kts
31-Jan-19 23:14 42.454337 -122.983012 320 21808ft 300kts
31-Jan-19 23:15 42.531813 -123.021731 341 20639ft 308kts
31-Jan-19 23:16 42.606396 -123.068858 313 19222ft 294kts
31-Jan-19 23:17 42.658707 -123.150869 297 17756ft 289kts
31-Jan-19 23:18 42.714423 -123.232191 313 16297ft 301kts
31-Jan-19 23:19 42.779797 -123.304265 315 14742ft 306kts
31-Jan-19 23:20 42.846101 -123.376667 315 13233ft 305kts
31-Jan-19 23:21 42.912281 -123.449600 315 11671ft 305kts
31-Jan-19 23:22 42.973414 -123.515688 315 10104ft 255kts
31-Jan-19 23:23 43.019901 -123.577060 305 8510ft 217kts
31-Jan-19 23:24 43.056250 -123.638969 306 6790ft 204kts
31-Jan-19 23:25 43.090387 -123.703188 305 5646ft 212kts
31-Jan-19 23:26 43.124209 -123.772364 304 5973ft 237kts
31-Jan-19 23:27 43.165114 -123.853739 303 5920ft 263kts
31-Jan-19 23:28 43.208157 -123.933177 304 5928ft 262kts
31-Jan-19 23:29 43.253393 -124.013735 305 5926ft 270kts
31-Jan-19 23:30 43.300109 -124.093784 311 5781ft 259kts
31-Jan-19 23:31 43.347032 -124.162440 311 4080ft 240kts
31-Jan-19 23:31 43.394349 -124.195880 341 2816ft 210kts
31-Jan-19 23:33 43.445771 -124.211909 57 2171ft 133kts
31-Jan-19 23:34 43.433633 -124.212611 254 954ft 107kts
31-Jan-19 23:35 43.420422 -124.246665 234 26ft 81kts
31-Jan-19 23:35 43.415687 -124.255449 103 25ft 12kts
31-Jan-19 23:36 43.416644 -124.252858 60 25ft 4kts
31-Jan-19 23:37 43.417766 -124.250112 61 25ft 10kts
31-Jan-19 23:39 43.416818 -124.249607 212 25ft 4kts
31-Jan-19 23:39 43.416755 -124.249662 211 25ft 0kts
31-Jan-19 23:40 43.416755 -124.249662 211 25ft 0kts
31-Jan-19 23:41 43.416755 -124.249662 211 25ft 0kts
31-Jan-19 23:42 43.416755 -124.249662 211 25ft 0kts
31-Jan-19 23:43 43.416755 -124.249662 211 25ft 0kts

Navigation Log

Ident Type
Flight plan parsing failed, navigation log unavailable